sensor_id;sensor_type;location;lat;lon;timestamp;P1;durP1;ratioP1;P2;durP2;ratioP2
58260;SDS011;44058;52.898;6.502;2022-11-15T00:01:47;22.10;;;19.80;;
58260;SDS011;44058;52.898;6.502;2022-11-15T00:04:13;23.15;;;20.75;;
58260;SDS011;44058;52.898;6.502;2022-11-15T00:06:39;22.67;;;20.48;;
58260;SDS011;44058;52.898;6.502;2022-11-15T00:09:05;21.95;;;19.75;;
58260;SDS011;44058;52.898;6.502;2022-11-15T00:11:31;23.13;;;20.65;;
58260;SDS011;44058;52.898;6.502;2022-11-15T00:13:57;23.17;;;20.70;;
58260;SDS011;44058;52.898;6.502;2022-11-15T00:16:23;22.27;;;20.08;;
58260;SDS011;44058;52.898;6.502;2022-11-15T00:18:49;22.95;;;20.65;;
58260;SDS011;44058;52.898;6.502;2022-11-15T00:21:15;22.58;;;20.27;;
58260;SDS011;44058;52.898;6.502;2022-11-15T00:23:42;20.38;;;18.27;;
58260;SDS011;44058;52.898;6.502;2022-11-15T00:26:11;21.48;;;19.30;;
58260;SDS011;44058;52.898;6.502;2022-11-15T00:28:38;21.23;;;19.13;;
58260;SDS011;44058;52.898;6.502;2022-11-15T00:31:04;20.92;;;18.83;;
58260;SDS011;44058;52.898;6.502;2022-11-15T00:33:32;20.50;;;18.40;;
58260;SDS011;44058;52.898;6.502;2022-11-15T00:36:05;24.45;;;22.05;;
58260;SDS011;44058;52.898;6.502;2022-11-15T00:38:36;25.52;;;22.95;;
58260;SDS011;44058;52.898;6.502;2022-11-15T00:41:04;24.83;;;22.33;;
58260;SDS011;44058;52.898;6.502;2022-11-15T00:43:30;25.50;;;22.98;;
58260;SDS011;44058;52.898;6.502;2022-11-15T00:45:57;26.70;;;23.90;;
58260;SDS011;44058;52.898;6.502;2022-11-15T00:48:22;24.58;;;22.08;;
58260;SDS011;44058;52.898;6.502;2022-11-15T00:50:48;24.65;;;22.08;;
58260;SDS011;44058;52.898;6.502;2022-11-15T00:53:15;25.85;;;23.25;;
58260;SDS011;44058;52.898;6.502;2022-11-15T00:55:41;23.98;;;21.55;;
58260;SDS011;44058;52.898;6.502;2022-11-15T00:58:07;23.92;;;21.63;;
58260;SDS011;44058;52.898;6.502;2022-11-15T01:00:33;24.65;;;22.05;;
58260;SDS011;44058;52.898;6.502;2022-11-15T01:02:59;23.65;;;21.25;;
58260;SDS011;44058;52.898;6.502;2022-11-15T01:05:26;23.45;;;20.95;;
58260;SDS011;44058;52.898;6.502;2022-11-15T01:07:54;24.65;;;22.05;;
58260;SDS011;44058;52.898;6.502;2022-11-15T01:10:21;24.13;;;21.63;;
58260;SDS011;44058;52.898;6.502;2022-11-15T01:12:47;24.50;;;21.92;;
58260;SDS011;44058;52.898;6.502;2022-11-15T01:15:13;23.92;;;21.42;;
58260;SDS011;44058;52.898;6.502;2022-11-15T01:17:39;22.85;;;20.58;;
58260;SDS011;44058;52.898;6.502;2022-11-15T01:20:05;23.83;;;21.42;;
58260;SDS011;44058;52.898;6.502;2022-11-15T01:22:31;22.52;;;20.15;;
58260;SDS011;44058;52.898;6.502;2022-11-15T01:24:57;23.17;;;20.60;;
58260;SDS011;44058;52.898;6.502;2022-11-15T01:27:22;23.52;;;20.88;;
58260;SDS011;44058;52.898;6.502;2022-11-15T01:29:48;26.15;;;22.67;;
58260;SDS011;44058;52.898;6.502;2022-11-15T01:32:14;27.77;;;22.25;;
58260;SDS011;44058;52.898;6.502;2022-11-15T01:34:39;26.48;;;23.30;;
58260;SDS011;44058;52.898;6.502;2022-11-15T01:37:05;29.02;;;23.98;;
58260;SDS011;44058;52.898;6.502;2022-11-15T01:39:31;29.33;;;23.75;;
58260;SDS011;44058;52.898;6.502;2022-11-15T01:41:56;26.33;;;22.40;;
58260;SDS011;44058;52.898;6.502;2022-11-15T01:47:11;29.23;;;23.73;;
58260;SDS011;44058;52.898;6.502;2022-11-15T01:52:20;27.08;;;22.88;;
58260;SDS011;44058;52.898;6.502;2022-11-15T01:57:16;28.08;;;23.55;;
58260;SDS011;44058;52.898;6.502;2022-11-15T01:59:43;26.25;;;22.38;;
58260;SDS011;44058;52.898;6.502;2022-11-15T02:02:10;29.65;;;23.60;;
58260;SDS011;44058;52.898;6.502;2022-11-15T02:04:44;28.50;;;23.42;;
58260;SDS011;44058;52.898;6.502;2022-11-15T02:07:13;27.48;;;22.58;;
58260;SDS011;44058;52.898;6.502;2022-11-15T02:09:42;26.33;;;22.92;;
58260;SDS011;44058;52.898;6.502;2022-11-15T02:12:09;27.45;;;21.95;;
58260;SDS011;44058;52.898;6.502;2022-11-15T02:14:38;29.02;;;23.20;;
58260;SDS011;44058;52.898;6.502;2022-11-15T02:25:46;28.40;;;22.25;;
58260;SDS011;44058;52.898;6.502;2022-11-15T02:33:57;26.67;;;22.27;;
58260;SDS011;44058;52.898;6.502;2022-11-15T02:36:47;28.10;;;22.48;;
58260;SDS011;44058;52.898;6.502;2022-11-15T02:42:00;28.20;;;21.90;;
58260;SDS011;44058;52.898;6.502;2022-11-15T02:44:52;29.15;;;23.13;;
58260;SDS011;44058;52.898;6.502;2022-11-15T02:47:21;29.00;;;22.33;;
58260;SDS011;44058;52.898;6.502;2022-11-15T02:49:50;29.35;;;22.15;;
58260;SDS011;44058;52.898;6.502;2022-11-15T02:52:23;31.75;;;23.15;;
58260;SDS011;44058;52.898;6.502;2022-11-15T02:54:53;32.42;;;23.77;;
58260;SDS011;44058;52.898;6.502;2022-11-15T02:57:44;34.58;;;24.05;;
58260;SDS011;44058;52.898;6.502;2022-11-15T03:00:17;31.85;;;23.77;;
58260;SDS011;44058;52.898;6.502;2022-11-15T03:05:28;33.95;;;23.95;;
58260;SDS011;44058;52.898;6.502;2022-11-15T03:10:32;34.50;;;24.52;;
58260;SDS011;44058;52.898;6.502;2022-11-15T03:13:21;40.22;;;26.42;;
58260;SDS011;44058;52.898;6.502;2022-11-15T03:15:50;32.95;;;24.98;;
58260;SDS011;44058;52.898;6.502;2022-11-15T03:18:33;39.03;;;26.67;;
58260;SDS011;44058;52.898;6.502;2022-11-15T03:21:04;39.78;;;27.88;;
58260;SDS011;44058;52.898;6.502;2022-11-15T03:23:33;43.30;;;27.98;;
58260;SDS011;44058;52.898;6.502;2022-11-15T03:26:01;41.75;;;28.23;;
58260;SDS011;44058;52.898;6.502;2022-11-15T03:28:31;41.05;;;27.40;;
58260;SDS011;44058;52.898;6.502;2022-11-15T03:31:03;46.38;;;30.08;;
58260;SDS011;44058;52.898;6.502;2022-11-15T03:33:50;49.75;;;30.35;;
58260;SDS011;44058;52.898;6.502;2022-11-15T03:36:22;50.92;;;30.40;;
58260;SDS011;44058;52.898;6.502;2022-11-15T03:38:50;52.05;;;31.67;;
58260;SDS011;44058;52.898;6.502;2022-11-15T03:41:24;53.88;;;32.78;;
58260;SDS011;44058;52.898;6.502;2022-11-15T03:44:13;45.97;;;30.40;;
58260;SDS011;44058;52.898;6.502;2022-11-15T03:47:00;52.88;;;32.20;;
58260;SDS011;44058;52.898;6.502;2022-11-15T03:49:33;51.47;;;32.10;;
58260;SDS011;44058;52.898;6.502;2022-11-15T03:52:01;42.97;;;30.10;;
58260;SDS011;44058;52.898;6.502;2022-11-15T03:54:28;56.10;;;34.53;;
58260;SDS011;44058;52.898;6.502;2022-11-15T03:56:54;58.38;;;34.50;;
58260;SDS011;44058;52.898;6.502;2022-11-15T03:59:20;46.55;;;31.35;;
58260;SDS011;44058;52.898;6.502;2022-11-15T04:01:46;61.35;;;35.72;;
58260;SDS011;44058;52.898;6.502;2022-11-15T04:04:12;59.17;;;36.40;;
58260;SDS011;44058;52.898;6.502;2022-11-15T04:06:37;52.03;;;34.10;;
58260;SDS011;44058;52.898;6.502;2022-11-15T04:09:03;58.65;;;36.28;;
58260;SDS011;44058;52.898;6.502;2022-11-15T04:11:30;69.68;;;38.08;;
58260;SDS011;44058;52.898;6.502;2022-11-15T04:13:55;72.68;;;41.50;;
58260;SDS011;44058;52.898;6.502;2022-11-15T04:16:21;70.53;;;41.13;;
58260;SDS011;44058;52.898;6.502;2022-11-15T04:18:47;75.82;;;42.10;;
58260;SDS011;44058;52.898;6.502;2022-11-15T04:21:32;81.13;;;44.45;;
58260;SDS011;44058;52.898;6.502;2022-11-15T04:24:16;77.38;;;43.17;;
58260;SDS011;44058;52.898;6.502;2022-11-15T04:26:42;68.35;;;40.83;;
58260;SDS011;44058;52.898;6.502;2022-11-15T04:29:08;78.80;;;45.85;;
58260;SDS011;44058;52.898;6.502;2022-11-15T04:31:52;86.97;;;45.80;;
58260;SDS011;44058;52.898;6.502;2022-11-15T04:34:17;87.45;;;46.97;;
58260;SDS011;44058;52.898;6.502;2022-11-15T04:36:43;80.50;;;45.17;;
58260;SDS011;44058;52.898;6.502;2022-11-15T04:39:27;90.88;;;48.33;;
58260;SDS011;44058;52.898;6.502;2022-11-15T04:41:53;89.55;;;47.13;;
58260;SDS011;44058;52.898;6.502;2022-11-15T04:44:18;76.70;;;44.58;;
58260;SDS011;44058;52.898;6.502;2022-11-15T04:46:44;75.43;;;44.38;;
58260;SDS011;44058;52.898;6.502;2022-11-15T04:49:10;83.82;;;44.58;;
58260;SDS011;44058;52.898;6.502;2022-11-15T04:51:35;93.43;;;48.58;;
58260;SDS011;44058;52.898;6.502;2022-11-15T04:54:01;83.38;;;45.97;;
58260;SDS011;44058;52.898;6.502;2022-11-15T04:56:27;89.40;;;47.22;;
58260;SDS011;44058;52.898;6.502;2022-11-15T04:58:52;78.53;;;45.10;;
58260;SDS011;44058;52.898;6.502;2022-11-15T05:01:18;75.32;;;44.53;;
58260;SDS011;44058;52.898;6.502;2022-11-15T05:03:44;90.18;;;48.33;;
58260;SDS011;44058;52.898;6.502;2022-11-15T05:06:28;82.90;;;46.25;;
58260;SDS011;44058;52.898;6.502;2022-11-15T05:08:55;93.57;;;50.25;;
58260;SDS011;44058;52.898;6.502;2022-11-15T05:11:21;86.93;;;49.40;;
58260;SDS011;44058;52.898;6.502;2022-11-15T05:13:47;88.05;;;49.45;;
58260;SDS011;44058;52.898;6.502;2022-11-15T05:16:13;85.32;;;48.88;;
58260;SDS011;44058;52.898;6.502;2022-11-15T05:18:39;88.90;;;48.15;;
58260;SDS011;44058;52.898;6.502;2022-11-15T05:21:12;86.28;;;48.30;;
58260;SDS011;44058;52.898;6.502;2022-11-15T05:23:39;81.13;;;45.88;;
58260;SDS011;44058;52.898;6.502;2022-11-15T05:26:06;90.97;;;48.70;;
58260;SDS011;44058;52.898;6.502;2022-11-15T05:28:32;75.68;;;45.97;;
58260;SDS011;44058;52.898;6.502;2022-11-15T05:31:08;79.38;;;45.97;;
58260;SDS011;44058;52.898;6.502;2022-11-15T05:33:39;71.80;;;45.30;;
58260;SDS011;44058;52.898;6.502;2022-11-15T05:38:46;66.85;;;43.75;;
58260;SDS011;44058;52.898;6.502;2022-11-15T05:41:13;61.90;;;42.00;;
58260;SDS011;44058;52.898;6.502;2022-11-15T05:43:41;66.40;;;43.20;;
58260;SDS011;44058;52.898;6.502;2022-11-15T05:46:08;61.72;;;43.78;;
58260;SDS011;44058;52.898;6.502;2022-11-15T05:48:35;61.28;;;41.88;;
58260;SDS011;44058;52.898;6.502;2022-11-15T05:51:02;57.95;;;41.10;;
58260;SDS011;44058;52.898;6.502;2022-11-15T05:53:29;53.72;;;40.15;;
58260;SDS011;44058;52.898;6.502;2022-11-15T05:55:56;58.88;;;40.47;;
58260;SDS011;44058;52.898;6.502;2022-11-15T05:58:22;56.53;;;41.60;;
58260;SDS011;44058;52.898;6.502;2022-11-15T06:00:48;60.20;;;40.20;;
58260;SDS011;44058;52.898;6.502;2022-11-15T06:03:14;62.17;;;41.30;;
58260;SDS011;44058;52.898;6.502;2022-11-15T06:05:40;60.90;;;41.45;;
58260;SDS011;44058;52.898;6.502;2022-11-15T06:08:05;54.28;;;38.67;;
58260;SDS011;44058;52.898;6.502;2022-11-15T06:10:32;58.30;;;41.45;;
58260;SDS011;44058;52.898;6.502;2022-11-15T06:12:58;62.90;;;42.17;;
58260;SDS011;44058;52.898;6.502;2022-11-15T06:15:28;61.35;;;41.05;;
58260;SDS011;44058;52.898;6.502;2022-11-15T06:17:57;57.38;;;39.08;;
58260;SDS011;44058;52.898;6.502;2022-11-15T06:20:24;60.35;;;40.50;;
58260;SDS011;44058;52.898;6.502;2022-11-15T06:22:50;62.35;;;41.47;;
58260;SDS011;44058;52.898;6.502;2022-11-15T06:25:16;61.70;;;40.92;;
58260;SDS011;44058;52.898;6.502;2022-11-15T06:27:41;59.25;;;39.35;;
58260;SDS011;44058;52.898;6.502;2022-11-15T06:30:07;53.88;;;37.25;;
58260;SDS011;44058;52.898;6.502;2022-11-15T06:32:33;52.90;;;37.50;;
58260;SDS011;44058;52.898;6.502;2022-11-15T06:35:04;54.88;;;38.17;;
58260;SDS011;44058;52.898;6.502;2022-11-15T06:37:30;53.28;;;37.95;;
58260;SDS011;44058;52.898;6.502;2022-11-15T06:39:56;56.22;;;37.83;;
58260;SDS011;44058;52.898;6.502;2022-11-15T06:42:22;52.80;;;37.33;;
58260;SDS011;44058;52.898;6.502;2022-11-15T06:44:47;53.00;;;37.45;;
58260;SDS011;44058;52.898;6.502;2022-11-15T06:47:13;46.38;;;35.95;;
58260;SDS011;44058;52.898;6.502;2022-11-15T06:49:39;50.05;;;35.40;;
58260;SDS011;44058;52.898;6.502;2022-11-15T06:52:05;51.97;;;36.47;;
58260;SDS011;44058;52.898;6.502;2022-11-15T06:54:31;52.45;;;34.97;;
58260;SDS011;44058;52.898;6.502;2022-11-15T06:56:56;46.67;;;33.70;;
58260;SDS011;44058;52.898;6.502;2022-11-15T06:59:22;49.65;;;35.25;;
58260;SDS011;44058;52.898;6.502;2022-11-15T07:01:48;48.83;;;35.50;;
58260;SDS011;44058;52.898;6.502;2022-11-15T07:04:14;46.78;;;32.92;;
58260;SDS011;44058;52.898;6.502;2022-11-15T07:06:40;43.70;;;33.80;;
58260;SDS011;44058;52.898;6.502;2022-11-15T07:09:05;49.88;;;33.28;;
58260;SDS011;44058;52.898;6.502;2022-11-15T07:11:32;44.33;;;33.50;;
58260;SDS011;44058;52.898;6.502;2022-11-15T07:13:59;43.50;;;33.25;;
58260;SDS011;44058;52.898;6.502;2022-11-15T07:16:25;43.53;;;32.17;;
58260;SDS011;44058;52.898;6.502;2022-11-15T07:18:51;46.65;;;33.35;;
58260;SDS011;44058;52.898;6.502;2022-11-15T07:21:37;44.92;;;32.13;;
58260;SDS011;44058;52.898;6.502;2022-11-15T07:24:02;36.83;;;29.55;;
58260;SDS011;44058;52.898;6.502;2022-11-15T07:26:29;40.55;;;32.67;;
58260;SDS011;44058;52.898;6.502;2022-11-15T07:28:54;41.25;;;32.60;;
58260;SDS011;44058;52.898;6.502;2022-11-15T07:31:20;38.67;;;31.15;;
58260;SDS011;44058;52.898;6.502;2022-11-15T07:33:46;40.90;;;30.83;;
58260;SDS011;44058;52.898;6.502;2022-11-15T07:36:11;42.08;;;30.52;;
58260;SDS011;44058;52.898;6.502;2022-11-15T07:38:37;36.78;;;30.25;;
58260;SDS011;44058;52.898;6.502;2022-11-15T07:41:03;36.88;;;30.00;;
58260;SDS011;44058;52.898;6.502;2022-11-15T07:43:30;37.65;;;29.27;;
58260;SDS011;44058;52.898;6.502;2022-11-15T07:45:58;34.97;;;29.27;;
58260;SDS011;44058;52.898;6.502;2022-11-15T07:48:29;39.10;;;29.90;;
58260;SDS011;44058;52.898;6.502;2022-11-15T07:50:57;33.78;;;28.90;;
58260;SDS011;44058;52.898;6.502;2022-11-15T07:53:22;33.75;;;28.85;;
58260;SDS011;44058;52.898;6.502;2022-11-15T07:55:48;31.15;;;27.73;;
58260;SDS011;44058;52.898;6.502;2022-11-15T07:58:14;30.58;;;26.92;;
58260;SDS011;44058;52.898;6.502;2022-11-15T08:00:40;34.22;;;27.08;;
58260;SDS011;44058;52.898;6.502;2022-11-15T08:03:06;29.85;;;26.65;;
58260;SDS011;44058;52.898;6.502;2022-11-15T08:05:34;31.13;;;26.33;;
58260;SDS011;44058;52.898;6.502;2022-11-15T08:08:00;31.77;;;26.05;;
58260;SDS011;44058;52.898;6.502;2022-11-15T08:10:28;34.03;;;25.73;;
58260;SDS011;44058;52.898;6.502;2022-11-15T08:13:02;30.00;;;26.23;;
58260;SDS011;44058;52.898;6.502;2022-11-15T08:15:29;29.05;;;25.88;;
58260;SDS011;44058;52.898;6.502;2022-11-15T08:17:57;29.30;;;25.70;;
58260;SDS011;44058;52.898;6.502;2022-11-15T08:20:25;30.77;;;26.08;;
58260;SDS011;44058;52.898;6.502;2022-11-15T08:22:59;31.70;;;26.05;;
58260;SDS011;44058;52.898;6.502;2022-11-15T08:25:26;28.20;;;25.23;;
58260;SDS011;44058;52.898;6.502;2022-11-15T08:27:56;28.48;;;25.40;;
58260;SDS011;44058;52.898;6.502;2022-11-15T08:30:39;27.38;;;24.17;;
58260;SDS011;44058;52.898;6.502;2022-11-15T08:33:09;25.52;;;22.88;;
58260;SDS011;44058;52.898;6.502;2022-11-15T08:35:36;27.55;;;24.40;;
58260;SDS011;44058;52.898;6.502;2022-11-15T08:38:02;26.65;;;23.75;;
58260;SDS011;44058;52.898;6.502;2022-11-15T08:40:28;26.75;;;23.90;;
58260;SDS011;44058;52.898;6.502;2022-11-15T08:42:53;29.95;;;24.25;;
58260;SDS011;44058;52.898;6.502;2022-11-15T08:45:19;26.70;;;23.88;;
58260;SDS011;44058;52.898;6.502;2022-11-15T08:47:45;27.80;;;24.90;;
58260;SDS011;44058;52.898;6.502;2022-11-15T08:50:10;32.15;;;24.80;;
58260;SDS011;44058;52.898;6.502;2022-11-15T08:52:36;28.63;;;24.25;;
58260;SDS011;44058;52.898;6.502;2022-11-15T08:55:02;26.77;;;23.88;;
58260;SDS011;44058;52.898;6.502;2022-11-15T08:57:28;24.95;;;22.38;;
58260;SDS011;44058;52.898;6.502;2022-11-15T08:59:57;25.33;;;22.75;;
58260;SDS011;44058;52.898;6.502;2022-11-15T09:02:23;29.42;;;24.30;;
58260;SDS011;44058;52.898;6.502;2022-11-15T09:04:49;26.65;;;23.02;;
58260;SDS011;44058;52.898;6.502;2022-11-15T09:07:14;26.05;;;23.45;;
58260;SDS011;44058;52.898;6.502;2022-11-15T09:09:40;29.95;;;24.63;;
58260;SDS011;44058;52.898;6.502;2022-11-15T09:12:06;25.25;;;22.73;;
58260;SDS011;44058;52.898;6.502;2022-11-15T09:14:32;27.80;;;23.15;;
58260;SDS011;44058;52.898;6.502;2022-11-15T09:16:58;27.35;;;24.45;;
58260;SDS011;44058;52.898;6.502;2022-11-15T09:19:25;27.40;;;24.63;;
58260;SDS011;44058;52.898;6.502;2022-11-15T09:21:50;28.35;;;25.48;;
58260;SDS011;44058;52.898;6.502;2022-11-15T09:24:16;24.95;;;22.33;;
58260;SDS011;44058;52.898;6.502;2022-11-15T09:26:42;25.70;;;22.83;;
58260;SDS011;44058;52.898;6.502;2022-11-15T09:29:08;25.13;;;22.58;;
58260;SDS011;44058;52.898;6.502;2022-11-15T09:31:34;25.50;;;22.80;;
58260;SDS011;44058;52.898;6.502;2022-11-15T09:34:00;24.80;;;22.30;;
58260;SDS011;44058;52.898;6.502;2022-11-15T09:36:25;24.23;;;21.30;;
58260;SDS011;44058;52.898;6.502;2022-11-15T09:38:51;22.92;;;20.55;;
58260;SDS011;44058;52.898;6.502;2022-11-15T09:46:38;23.88;;;21.38;;
58260;SDS011;44058;52.898;6.502;2022-11-15T09:49:30;24.63;;;20.52;;
58260;SDS011;44058;52.898;6.502;2022-11-15T09:51:56;21.75;;;19.55;;
58260;SDS011;44058;52.898;6.502;2022-11-15T09:54:30;22.42;;;20.15;;
58260;SDS011;44058;52.898;6.502;2022-11-15T09:57:09;23.67;;;20.90;;
58260;SDS011;44058;52.898;6.502;2022-11-15T10:04:50;21.45;;;19.33;;
58260;SDS011;44058;52.898;6.502;2022-11-15T10:07:24;21.08;;;18.85;;
58260;SDS011;44058;52.898;6.502;2022-11-15T10:12:50;22.05;;;19.75;;
58260;SDS011;44058;52.898;6.502;2022-11-15T10:15:18;21.67;;;18.80;;
58260;SDS011;44058;52.898;6.502;2022-11-15T10:20:41;20.20;;;18.10;;
58260;SDS011;44058;52.898;6.502;2022-11-15T10:23:19;20.25;;;18.10;;
58260;SDS011;44058;52.898;6.502;2022-11-15T10:25:46;19.52;;;17.45;;
58260;SDS011;44058;52.898;6.502;2022-11-15T10:28:22;19.08;;;17.17;;
58260;SDS011;44058;52.898;6.502;2022-11-15T10:30:53;19.92;;;16.40;;
58260;SDS011;44058;52.898;6.502;2022-11-15T10:38:55;16.35;;;14.85;;
58260;SDS011;44058;52.898;6.502;2022-11-15T10:46:43;15.65;;;14.07;;
58260;SDS011;44058;52.898;6.502;2022-11-15T10:49:20;14.77;;;13.30;;
58260;SDS011;44058;52.898;6.502;2022-11-15T10:51:57;13.45;;;12.15;;
58260;SDS011;44058;52.898;6.502;2022-11-15T10:54:40;14.00;;;12.80;;
58260;SDS011;44058;52.898;6.502;2022-11-15T10:57:12;13.20;;;11.90;;
58260;SDS011;44058;52.898;6.502;2022-11-15T10:59:42;11.18;;;10.07;;
58260;SDS011;44058;52.898;6.502;2022-11-15T11:02:23;10.45;;;8.85;;
58260;SDS011;44058;52.898;6.502;2022-11-15T11:04:57;10.13;;;7.88;;
58260;SDS011;44058;52.898;6.502;2022-11-15T11:07:24;7.53;;;6.82;;
58260;SDS011;44058;52.898;6.502;2022-11-15T11:09:59;7.30;;;4.93;;
58260;SDS011;44058;52.898;6.502;2022-11-15T11:12:46;4.65;;;4.25;;
58260;SDS011;44058;52.898;6.502;2022-11-15T11:15:12;4.55;;;3.70;;
58260;SDS011;44058;52.898;6.502;2022-11-15T11:17:48;4.73;;;3.53;;
58260;SDS011;44058;52.898;6.502;2022-11-15T11:20:49;5.38;;;3.60;;
58260;SDS011;44058;52.898;6.502;2022-11-15T11:26:48;3.97;;;2.92;;
58260;SDS011;44058;52.898;6.502;2022-11-15T11:29:26;5.75;;;2.85;;
58260;SDS011;44058;52.898;6.502;2022-11-15T11:38:40;5.50;;;2.80;;
58260;SDS011;44058;52.898;6.502;2022-11-15T11:41:00;9.18;;;3.28;;
58260;SDS011;44058;52.898;6.502;2022-11-15T11:49:10;6.82;;;3.20;;
58260;SDS011;44058;52.898;6.502;2022-11-15T11:54:53;5.25;;;3.22;;
58260;SDS011;44058;52.898;6.502;2022-11-15T12:00:15;4.13;;;3.17;;
58260;SDS011;44058;52.898;6.502;2022-11-15T12:02:43;4.15;;;3.50;;
58260;SDS011;44058;52.898;6.502;2022-11-15T12:05:30;5.75;;;3.50;;
58260;SDS011;44058;52.898;6.502;2022-11-15T12:08:50;4.88;;;3.42;;
58260;SDS011;44058;52.898;6.502;2022-11-15T12:10:56;5.65;;;3.38;;
58260;SDS011;44058;52.898;6.502;2022-11-15T12:16:15;7.45;;;4.10;;
58260;SDS011;44058;52.898;6.502;2022-11-15T12:18:44;7.22;;;4.07;;
58260;SDS011;44058;52.898;6.502;2022-11-15T12:21:14;6.07;;;4.22;;
58260;SDS011;44058;52.898;6.502;2022-11-15T12:24:05;6.75;;;4.30;;
58260;SDS011;44058;52.898;6.502;2022-11-15T12:26:37;5.88;;;4.03;;
58260;SDS011;44058;52.898;6.502;2022-11-15T12:29:13;5.28;;;4.10;;
58260;SDS011;44058;52.898;6.502;2022-11-15T12:31:44;4.90;;;3.63;;
58260;SDS011;44058;52.898;6.502;2022-11-15T12:36:45;4.55;;;3.53;;
58260;SDS011;44058;52.898;6.502;2022-11-15T12:39:13;6.30;;;3.67;;
58260;SDS011;44058;52.898;6.502;2022-11-15T12:41:40;5.82;;;3.60;;
58260;SDS011;44058;52.898;6.502;2022-11-15T12:49:47;6.05;;;3.42;;
58260;SDS011;44058;52.898;6.502;2022-11-15T12:52:13;4.15;;;3.25;;
58260;SDS011;44058;52.898;6.502;2022-11-15T12:59:50;4.65;;;2.80;;
58260;SDS011;44058;52.898;6.502;2022-11-15T13:17:40;6.88;;;2.45;;
58260;SDS011;44058;52.898;6.502;2022-11-15T13:22:38;4.68;;;1.90;;
58260;SDS011;44058;52.898;6.502;2022-11-15T13:28:10;2.97;;;2.15;;
58260;SDS011;44058;52.898;6.502;2022-11-15T13:33:22;5.22;;;1.80;;
58260;SDS011;44058;52.898;6.502;2022-11-15T13:36:01;3.80;;;1.77;;
58260;SDS011;44058;52.898;6.502;2022-11-15T13:38:39;4.43;;;1.80;;
58260;SDS011;44058;52.898;6.502;2022-11-15T13:41:14;2.92;;;1.73;;
58260;SDS011;44058;52.898;6.502;2022-11-15T13:43:42;3.75;;;1.70;;
58260;SDS011;44058;52.898;6.502;2022-11-15T13:49:08;2.70;;;1.55;;
58260;SDS011;44058;52.898;6.502;2022-11-15T13:51:47;2.28;;;1.90;;
58260;SDS011;44058;52.898;6.502;2022-11-15T13:57:10;2.95;;;1.60;;
58260;SDS011;44058;52.898;6.502;2022-11-15T13:59:44;2.10;;;1.30;;
58260;SDS011;44058;52.898;6.502;2022-11-15T14:02:24;3.28;;;1.30;;
58260;SDS011;44058;52.898;6.502;2022-11-15T14:05:00;3.13;;;1.40;;
58260;SDS011;44058;52.898;6.502;2022-11-15T14:07:59;2.78;;;1.05;;
58260;SDS011;44058;52.898;6.502;2022-11-15T14:10:29;2.17;;;1.33;;
58260;SDS011;44058;52.898;6.502;2022-11-15T14:12:56;2.55;;;1.15;;
58260;SDS011;44058;52.898;6.502;2022-11-15T14:15:28;2.63;;;1.17;;
58260;SDS011;44058;52.898;6.502;2022-11-15T14:17:59;2.25;;;1.00;;
58260;SDS011;44058;52.898;6.502;2022-11-15T14:22:51;2.10;;;0.95;;
58260;SDS011;44058;52.898;6.502;2022-11-15T14:25:19;2.15;;;1.30;;
58260;SDS011;44058;52.898;6.502;2022-11-15T14:30:32;2.58;;;1.17;;
58260;SDS011;44058;52.898;6.502;2022-11-15T14:32:58;3.33;;;1.30;;
58260;SDS011;44058;52.898;6.502;2022-11-15T14:35:23;2.92;;;1.23;;
58260;SDS011;44058;52.898;6.502;2022-11-15T14:37:49;2.00;;;1.23;;
58260;SDS011;44058;52.898;6.502;2022-11-15T14:40:18;3.10;;;1.40;;
58260;SDS011;44058;52.898;6.502;2022-11-15T14:42:46;2.40;;;1.40;;
58260;SDS011;44058;52.898;6.502;2022-11-15T14:45:17;2.95;;;1.35;;
58260;SDS011;44058;52.898;6.502;2022-11-15T14:47:44;2.65;;;1.30;;
58260;SDS011;44058;52.898;6.502;2022-11-15T14:52:40;4.47;;;1.40;;
58260;SDS011;44058;52.898;6.502;2022-11-15T14:55:12;4.85;;;1.70;;
58260;SDS011;44058;52.898;6.502;2022-11-15T14:57:57;3.72;;;1.90;;
58260;SDS011;44058;52.898;6.502;2022-11-15T15:00:23;2.58;;;1.90;;
58260;SDS011;44058;52.898;6.502;2022-11-15T15:02:50;3.60;;;2.15;;
58260;SDS011;44058;52.898;6.502;2022-11-15T15:07:44;4.63;;;3.67;;
58260;SDS011;44058;52.898;6.502;2022-11-15T15:10:10;4.82;;;3.50;;
58260;SDS011;44058;52.898;6.502;2022-11-15T15:12:36;4.32;;;3.80;;
58260;SDS011;44058;52.898;6.502;2022-11-15T15:15:01;4.28;;;3.88;;
58260;SDS011;44058;52.898;6.502;2022-11-15T15:17:27;4.78;;;4.03;;
58260;SDS011;44058;52.898;6.502;2022-11-15T15:19:53;5.47;;;4.88;;
58260;SDS011;44058;52.898;6.502;2022-11-15T15:22:19;5.10;;;4.70;;
58260;SDS011;44058;52.898;6.502;2022-11-15T15:24:47;5.00;;;4.60;;
58260;SDS011;44058;52.898;6.502;2022-11-15T15:27:13;5.35;;;4.93;;
58260;SDS011;44058;52.898;6.502;2022-11-15T15:29:40;5.40;;;4.78;;
58260;SDS011;44058;52.898;6.502;2022-11-15T15:32:06;5.28;;;4.80;;
58260;SDS011;44058;52.898;6.502;2022-11-15T15:34:32;5.32;;;4.75;;
58260;SDS011;44058;52.898;6.502;2022-11-15T15:37:07;5.20;;;4.70;;
58260;SDS011;44058;52.898;6.502;2022-11-15T15:39:33;4.85;;;4.45;;
58260;SDS011;44058;52.898;6.502;2022-11-15T15:41:59;5.88;;;5.38;;
58260;SDS011;44058;52.898;6.502;2022-11-15T15:44:24;5.40;;;4.90;;
58260;SDS011;44058;52.898;6.502;2022-11-15T15:46:50;5.97;;;5.40;;
58260;SDS011;44058;52.898;6.502;2022-11-15T15:49:16;5.70;;;5.20;;
58260;SDS011;44058;52.898;6.502;2022-11-15T15:51:41;5.55;;;5.07;;
58260;SDS011;44058;52.898;6.502;2022-11-15T15:54:08;5.70;;;5.20;;
58260;SDS011;44058;52.898;6.502;2022-11-15T15:56:34;5.85;;;5.00;;
58260;SDS011;44058;52.898;6.502;2022-11-15T15:59:00;5.70;;;5.13;;
58260;SDS011;44058;52.898;6.502;2022-11-15T16:01:25;6.28;;;5.60;;
58260;SDS011;44058;52.898;6.502;2022-11-15T16:03:51;5.10;;;4.65;;
58260;SDS011;44058;52.898;6.502;2022-11-15T16:06:29;6.15;;;4.53;;
58260;SDS011;44058;52.898;6.502;2022-11-15T16:09:00;4.45;;;4.07;;
58260;SDS011;44058;52.898;6.502;2022-11-15T16:11:25;5.78;;;4.00;;
58260;SDS011;44058;52.898;6.502;2022-11-15T16:13:51;5.65;;;4.32;;
58260;SDS011;44058;52.898;6.502;2022-11-15T16:16:17;4.70;;;3.85;;
58260;SDS011;44058;52.898;6.502;2022-11-15T16:18:43;4.85;;;3.70;;
58260;SDS011;44058;52.898;6.502;2022-11-15T16:21:09;3.92;;;3.53;;
58260;SDS011;44058;52.898;6.502;2022-11-15T16:23:34;3.65;;;3.35;;
58260;SDS011;44058;52.898;6.502;2022-11-15T16:26:00;3.10;;;2.80;;
58260;SDS011;44058;52.898;6.502;2022-11-15T16:28:31;3.63;;;2.80;;
58260;SDS011;44058;52.898;6.502;2022-11-15T16:31:05;4.43;;;3.30;;
58260;SDS011;44058;52.898;6.502;2022-11-15T16:33:33;4.07;;;3.25;;
58260;SDS011;44058;52.898;6.502;2022-11-15T16:36:00;3.97;;;2.70;;
58260;SDS011;44058;52.898;6.502;2022-11-15T16:38:26;4.75;;;2.53;;
58260;SDS011;44058;52.898;6.502;2022-11-15T16:40:51;20.63;;;2.97;;
58260;SDS011;44058;52.898;6.502;2022-11-15T16:43:17;2.72;;;2.10;;
58260;SDS011;44058;52.898;6.502;2022-11-15T16:45:43;3.33;;;2.08;;
58260;SDS011;44058;52.898;6.502;2022-11-15T16:48:19;3.90;;;1.98;;
58260;SDS011;44058;52.898;6.502;2022-11-15T16:50:58;4.03;;;1.98;;
58260;SDS011;44058;52.898;6.502;2022-11-15T16:53:24;2.85;;;2.22;;
58260;SDS011;44058;52.898;6.502;2022-11-15T16:55:51;3.55;;;1.90;;
58260;SDS011;44058;52.898;6.502;2022-11-15T16:58:17;3.97;;;1.65;;
58260;SDS011;44058;52.898;6.502;2022-11-15T17:00:42;2.05;;;1.77;;